Terminal Aerodrome Forecast
Issued by NWS Green Bay, WI

Home | Current Version | Previous Version | Text Only | Print | Product List | Glossary Off
Versions: 1 2 3 4 5 6 7 8 9 10 11 12 13 14 15 16 17

000
FTUS43 KGRB 240650 AAA
TAFGRB
TAF AMD
KGRB 240650Z 2407/2506 17008KT P6SM BKN040 OVC150
      TEMPO 2407/2410 1SM TSRA BR BKN009 OVC035CB
     FM241000 19008KT 2SM SHRA BR BKN008 OVC015
     FM241400 20010G17KT 5SM -SHRA BR BKN008 OVC015
     FM241800 21010G17KT 6SM HZ SCT015 BKN035
      TEMPO 2418/2420 BKN015
     FM250100 23007KT 5SM BR SCT015 BKN035
      TEMPO 2501/2504 BKN015=

USA.gov is the U.S. government's official web portal to all federal, state and local government web resources and services.